createdAt,value
2018-12-15T00:01:56.478Z,9.33
2018-12-15T00:04:24.897Z,9.43
2018-12-15T00:06:53.838Z,9.00
2018-12-15T00:09:24.029Z,9.33
2018-12-15T00:11:52.991Z,9.27
2018-12-15T00:14:21.400Z,9.13
2018-12-15T00:16:50.866Z,9.43
2018-12-15T00:19:20.236Z,9.10
2018-12-15T00:21:48.462Z,9.63
2018-12-15T00:24:17.040Z,8.93
2018-12-15T00:26:46.257Z,10.07
2018-12-15T00:29:15.898Z,9.63
2018-12-15T00:31:44.152Z,9.57
2018-12-15T00:34:13.368Z,9.47
2018-12-15T00:36:41.760Z,8.80
2018-12-15T00:39:10.419Z,9.87
2018-12-15T00:41:38.565Z,8.77
2018-12-15T00:44:09.036Z,8.23
2018-12-15T00:46:38.088Z,8.70
2018-12-15T00:49:06.171Z,8.77
2018-12-15T00:51:35.152Z,9.33
2018-12-15T00:54:03.770Z,8.67
2018-12-15T00:56:32.603Z,8.70
2018-12-15T00:59:01.756Z,8.70
2018-12-15T01:01:30.361Z,8.80
2018-12-15T01:03:58.942Z,9.13
2018-12-15T01:06:27.436Z,8.30
2018-12-15T01:08:56.172Z,8.03
2018-12-15T01:11:24.794Z,8.30
2018-12-15T01:13:53.945Z,7.73
2018-12-15T01:16:23.112Z,7.90
2018-12-15T01:18:52.153Z,7.30
2018-12-15T01:21:20.352Z,6.67
2018-12-15T01:23:48.996Z,7.73
2018-12-15T01:26:17.934Z,7.60
2018-12-15T01:28:46.892Z,6.00
2018-12-15T01:31:16.037Z,7.20
2018-12-15T01:33:45.502Z,8.50
2018-12-15T01:36:15.175Z,6.73
2018-12-15T01:38:43.597Z,7.13
2018-12-15T01:41:12.017Z,8.13
2018-12-15T01:43:41.489Z,8.20
2018-12-15T01:46:10.951Z,6.90
2018-12-15T01:48:39.893Z,7.00
2018-12-15T01:51:08.197Z,7.13
2018-12-15T01:53:36.526Z,7.40
2018-12-15T01:56:05.143Z,6.33
2018-12-15T01:58:34.411Z,6.40
2018-12-15T02:01:03.902Z,7.40
2018-12-15T02:03:34.169Z,6.07
2018-12-15T02:06:03.226Z,7.53
2018-12-15T02:08:31.752Z,7.03
2018-12-15T02:11:01.322Z,6.97
2018-12-15T02:13:30.262Z,9.57
2018-12-15T02:15:59.866Z,7.53
2018-12-15T02:18:28.887Z,6.47
2018-12-15T02:20:57.389Z,7.83
2018-12-15T02:23:26.033Z,7.17
2018-12-15T02:25:54.772Z,7.60
2018-12-15T02:28:23.298Z,7.60
2018-12-15T02:30:51.344Z,7.27
2018-12-15T02:33:21.239Z,6.83
2018-12-15T02:35:50.135Z,6.57
2018-12-15T02:38:19.915Z,6.40
2018-12-15T02:40:50.098Z,6.40
2018-12-15T02:43:18.424Z,7.00
2018-12-15T02:45:47.574Z,6.83
2018-12-15T02:48:16.510Z,6.90
2018-12-15T02:50:45.971Z,7.63
2018-12-15T02:53:15.238Z,7.47
2018-12-15T02:55:45.021Z,8.17
2018-12-15T02:58:14.076Z,7.40
2018-12-15T03:00:42.152Z,7.53
2018-12-15T03:03:10.803Z,7.57
2018-12-15T03:05:41.736Z,7.10
2018-12-15T03:08:10.364Z,8.83
2018-12-15T03:10:38.786Z,8.60
2018-12-15T03:13:08.352Z,8.20
2018-12-15T03:15:37.192Z,8.13
2018-12-15T03:18:07.704Z,8.83
2018-12-15T03:20:38.101Z,8.53
2018-12-15T03:23:08.072Z,8.13
2018-12-15T03:25:37.980Z,8.23
2018-12-15T03:28:07.027Z,7.73
2018-12-15T03:30:37.989Z,8.37
2018-12-15T03:33:06.481Z,8.20
2018-12-15T03:35:35.935Z,8.13
2018-12-15T03:38:04.072Z,8.37
2018-12-15T03:40:32.285Z,8.43
2018-12-15T03:43:01.313Z,8.20
2018-12-15T03:45:29.513Z,8.90
2018-12-15T03:47:58.260Z,7.83
2018-12-15T03:50:28.984Z,9.47
2018-12-15T03:52:57.596Z,8.03
2018-12-15T03:55:25.927Z,9.57
2018-12-15T03:57:54.347Z,9.10
2018-12-15T04:00:22.763Z,16.67
2018-12-15T04:02:51.083Z,10.90
2018-12-15T04:05:20.035Z,9.27
2018-12-15T04:07:49.194Z,8.80
2018-12-15T04:10:20.220Z,9.60
2018-12-15T04:12:49.261Z,10.13
2018-12-15T04:15:18.310Z,9.77
2018-12-15T04:17:47.405Z,9.60
2018-12-15T04:20:15.758Z,9.67
2018-12-15T04:22:44.423Z,9.60
2018-12-15T04:25:12.499Z,9.63
2018-12-15T04:27:41.145Z,10.03
2018-12-15T04:30:11.336Z,8.83
2018-12-15T04:32:45.159Z,9.50
2018-12-15T04:35:11.945Z,10.00
2018-12-15T04:37:42.246Z,9.70
2018-12-15T04:40:10.870Z,10.10
2018-12-15T04:42:40.133Z,10.30
2018-12-15T04:45:09.284Z,10.80
2018-12-15T04:47:39.180Z,10.43
2018-12-15T04:50:08.212Z,9.27
2018-12-15T04:52:36.590Z,10.50
2018-12-15T04:55:06.492Z,10.53
2018-12-15T04:57:35.480Z,10.47
2018-12-15T05:00:06.975Z,10.33
2018-12-15T05:02:43.482Z,10.47
2018-12-15T05:05:07.411Z,10.70
2018-12-15T05:07:35.525Z,9.63
2018-12-15T05:10:05.704Z,9.50
2018-12-15T05:12:35.287Z,10.20
2018-12-15T05:15:04.023Z,9.80
2018-12-15T05:17:32.512Z,8.80
2018-12-15T05:20:01.693Z,8.60
2018-12-15T05:22:30.435Z,9.70
2018-12-15T05:24:59.383Z,9.33
2018-12-15T05:27:27.793Z,9.37
2018-12-15T05:29:56.210Z,9.73
2018-12-15T05:32:24.344Z,9.90
2018-12-15T05:34:52.852Z,11.43
2018-12-15T05:37:23.113Z,9.67
2018-12-15T05:39:52.202Z,8.00
2018-12-15T05:42:20.439Z,10.40
2018-12-15T05:44:49.775Z,8.73
2018-12-15T05:47:18.715Z,9.53
2018-12-15T05:49:47.336Z,9.53
2018-12-15T05:52:15.417Z,9.37
2018-12-15T05:54:44.817Z,12.00
2018-12-15T05:57:13.346Z,9.50
2018-12-15T05:59:41.529Z,9.37
2018-12-15T06:02:10.903Z,8.97
2018-12-15T06:04:39.237Z,8.97
2018-12-15T06:07:10.161Z,10.20
2018-12-15T06:09:39.151Z,10.17
2018-12-15T06:12:08.572Z,9.57
2018-12-15T06:14:37.097Z,8.77
2018-12-15T06:17:08.127Z,9.70
2018-12-15T06:19:36.764Z,9.53
2018-12-15T06:22:05.194Z,10.17
2018-12-15T06:24:34.232Z,8.13
2018-12-15T06:27:03.688Z,10.07
2018-12-15T06:29:32.312Z,9.70
2018-12-15T06:32:01.264Z,9.60
2018-12-15T06:34:29.898Z,10.23
2018-12-15T06:37:00.092Z,10.13
2018-12-15T06:39:29.141Z,11.40
2018-12-15T06:41:58.714Z,10.33
2018-12-15T06:44:27.236Z,10.00
2018-12-15T06:46:55.782Z,9.53
2018-12-15T06:49:25.000Z,9.50
2018-12-15T06:51:54.288Z,10.13
2018-12-15T06:54:22.695Z,8.67
2018-12-15T06:56:51.192Z,9.97
2018-12-15T06:59:20.222Z,9.20
2018-12-15T07:01:49.318Z,10.03
2018-12-15T07:04:18.364Z,10.33
2018-12-15T07:06:46.984Z,10.43
2018-12-15T07:09:16.158Z,10.60
2018-12-15T07:11:44.380Z,10.70
2018-12-15T07:14:13.614Z,10.83
2018-12-15T07:16:42.762Z,10.60
2018-12-15T07:19:11.393Z,11.43
2018-12-15T07:21:41.782Z,10.37
2018-12-15T07:24:10.329Z,10.67
2018-12-15T07:26:39.523Z,11.00
2018-12-15T07:29:09.051Z,10.60
2018-12-15T07:31:38.108Z,10.00
2018-12-15T07:34:06.200Z,10.70
2018-12-15T07:36:34.828Z,10.10
2018-12-15T07:39:03.675Z,8.90
2018-12-15T07:41:32.300Z,11.23
2018-12-15T07:44:00.833Z,10.57
2018-12-15T07:46:29.225Z,10.27
2018-12-15T07:48:57.440Z,10.17
2018-12-15T07:51:25.795Z,10.60
2018-12-15T07:53:54.015Z,10.83
2018-12-15T07:56:24.817Z,9.73
2018-12-15T07:58:54.388Z,11.23
2018-12-15T08:01:23.344Z,10.50
2018-12-15T08:03:51.467Z,10.40
2018-12-15T08:06:21.051Z,10.87
2018-12-15T08:08:49.848Z,10.53
2018-12-15T08:11:24.584Z,9.80
2018-12-15T08:13:54.927Z,11.17
2018-12-15T08:16:23.995Z,11.67
2018-12-15T08:18:58.038Z,12.23
2018-12-15T08:21:23.221Z,11.50
2018-12-15T08:23:53.529Z,11.50
2018-12-15T08:26:22.478Z,11.73
2018-12-15T08:28:52.677Z,10.93
2018-12-15T08:31:21.202Z,11.07
2018-12-15T08:33:49.830Z,12.17
2018-12-15T08:36:19.909Z,12.47
2018-12-15T08:38:48.029Z,12.27
2018-12-15T08:41:17.610Z,11.27
2018-12-15T08:43:46.125Z,11.03
2018-12-15T08:46:15.689Z,10.20
2018-12-15T08:48:45.893Z,9.73
2018-12-15T08:51:13.999Z,11.03
2018-12-15T08:53:43.051Z,10.23
2018-12-15T08:56:11.240Z,11.50
2018-12-15T08:58:40.924Z,10.70
2018-12-15T09:01:10.921Z,11.00
2018-12-15T09:03:40.294Z,11.30
2018-12-15T09:06:08.504Z,11.70
2018-12-15T09:08:37.022Z,11.60
2018-12-15T09:11:06.480Z,11.67
2018-12-15T09:13:35.953Z,11.70
2018-12-15T09:16:05.107Z,11.77
2018-12-15T09:18:35.092Z,11.63
2018-12-15T09:21:03.934Z,11.80
2018-12-15T09:23:32.196Z,12.03
2018-12-15T09:26:01.296Z,12.57
2018-12-15T09:28:30.343Z,10.40
2018-12-15T09:30:58.764Z,11.23
2018-12-15T09:33:27.173Z,11.93
2018-12-15T09:35:57.394Z,12.50
2018-12-15T09:38:25.804Z,12.10
2018-12-15T09:40:54.328Z,12.23
2018-12-15T09:43:22.754Z,11.00
2018-12-15T09:45:51.171Z,12.43
2018-12-15T09:48:19.364Z,12.83
2018-12-15T09:50:48.874Z,12.67
2018-12-15T09:53:17.600Z,12.93
2018-12-15T09:55:46.005Z,12.90
2018-12-15T09:58:14.849Z,10.93
2018-12-15T10:00:44.297Z,12.73
2018-12-15T10:03:12.741Z,13.07
2018-12-15T10:05:41.257Z,12.57
2018-12-15T10:08:11.246Z,12.83
2018-12-15T10:10:40.088Z,13.20
2018-12-15T10:13:09.034Z,11.93
2018-12-15T10:15:38.168Z,11.70
2018-12-15T10:18:06.421Z,12.57
2018-12-15T10:20:35.599Z,12.37
2018-12-15T10:23:04.067Z,12.10
2018-12-15T10:25:32.494Z,12.27
2018-12-15T10:28:01.329Z,13.10
2018-12-15T10:30:35.066Z,12.07
2018-12-15T10:33:05.065Z,12.50
2018-12-15T10:35:34.642Z,11.57
2018-12-15T10:38:05.251Z,13.07
2018-12-15T10:40:33.385Z,12.73
2018-12-15T10:43:02.376Z,11.63
2018-12-15T10:45:31.349Z,11.53
2018-12-15T10:47:59.979Z,10.47
2018-12-15T10:50:29.126Z,12.00
2018-12-15T10:52:58.804Z,12.53
2018-12-15T10:55:27.400Z,11.93
2018-12-15T10:57:55.969Z,11.63
2018-12-15T11:00:26.376Z,12.17
2018-12-15T11:02:55.832Z,11.70
2018-12-15T11:05:24.359Z,9.80
2018-12-15T11:07:52.883Z,11.63
2018-12-15T11:10:22.140Z,12.30
2018-12-15T11:12:50.537Z,11.40
2018-12-15T11:15:20.027Z,12.23
2018-12-15T11:17:49.073Z,12.50
2018-12-15T11:20:18.643Z,12.23
2018-12-15T11:22:47.172Z,12.17
2018-12-15T11:25:16.008Z,12.47
2018-12-15T11:27:45.161Z,11.53
2018-12-15T11:30:14.217Z,9.80
2018-12-15T11:32:43.257Z,12.00
2018-12-15T11:35:12.513Z,12.77
2018-12-15T11:37:42.512Z,12.13
2018-12-15T11:40:12.174Z,10.83
2018-12-15T11:42:41.513Z,11.73
2018-12-15T11:45:12.080Z,11.40
2018-12-15T11:47:40.284Z,11.57
2018-12-15T11:50:08.596Z,11.40
2018-12-15T11:52:38.695Z,16.23
2018-12-15T11:55:07.196Z,11.97
2018-12-15T11:57:35.228Z,12.40
2018-12-15T12:00:06.116Z,12.80
2018-12-15T12:02:35.285Z,12.20
2018-12-15T12:05:06.205Z,11.70
2018-12-15T12:07:34.835Z,11.73
2018-12-15T12:10:04.300Z,11.77
2018-12-15T12:12:33.454Z,11.13
2018-12-15T12:15:02.709Z,11.50
2018-12-15T12:17:31.341Z,11.80
2018-12-15T12:19:59.644Z,13.07
2018-12-15T12:22:28.186Z,12.17
2018-12-15T12:24:57.235Z,12.90
2018-12-15T12:27:26.396Z,12.17
2018-12-15T12:29:54.907Z,12.97
2018-12-15T12:32:23.422Z,11.20
2018-12-15T12:34:53.102Z,12.80
2018-12-15T12:37:22.170Z,11.03
2018-12-15T12:39:52.023Z,11.53
2018-12-15T12:42:20.884Z,11.60
2018-12-15T12:44:50.760Z,11.57
2018-12-15T12:47:19.078Z,13.10
2018-12-15T12:49:48.226Z,11.40
2018-12-15T12:52:17.393Z,11.77
2018-12-15T12:54:47.359Z,12.20
2018-12-15T12:57:16.202Z,11.97
2018-12-15T12:59:45.884Z,11.27
2018-12-15T13:02:14.829Z,11.60
2018-12-15T13:04:43.353Z,12.60
2018-12-15T13:07:12.928Z,12.13
2018-12-15T13:09:42.383Z,12.07
2018-12-15T13:12:11.444Z,11.97
2018-12-15T13:14:39.961Z,12.80
2018-12-15T13:17:09.112Z,12.03
2018-12-15T13:19:38.265Z,11.97
2018-12-15T13:22:06.900Z,11.47
2018-12-15T13:24:35.428Z,11.70
2018-12-15T13:27:03.936Z,10.87
2018-12-15T13:29:32.681Z,12.00
2018-12-15T13:32:01.111Z,11.07
2018-12-15T13:34:30.254Z,10.73
2018-12-15T13:37:01.074Z,11.17
2018-12-15T13:39:30.230Z,10.77
2018-12-15T13:41:59.385Z,10.50
2018-12-15T13:44:28.328Z,11.73
2018-12-15T13:46:56.561Z,10.70
2018-12-15T13:49:25.272Z,9.87
2018-12-15T13:51:54.231Z,10.60
2018-12-15T13:54:24.003Z,9.37
2018-12-15T13:56:52.941Z,9.40
2018-12-15T13:59:22.221Z,10.60
2018-12-15T14:01:51.460Z,10.07
2018-12-15T14:04:20.530Z,10.43
2018-12-15T14:06:49.441Z,10.27
2018-12-15T14:09:17.644Z,10.87
2018-12-15T14:11:47.851Z,10.03
2018-12-15T14:14:16.273Z,9.77
2018-12-15T14:16:44.463Z,10.60
2018-12-15T14:19:13.222Z,10.07
2018-12-15T14:21:41.518Z,10.67
2018-12-15T14:24:10.062Z,10.37
2018-12-15T14:26:40.049Z,10.50
2018-12-15T14:29:09.201Z,10.47
2018-12-15T14:31:37.701Z,8.80
2018-12-15T14:34:06.333Z,10.07
2018-12-15T14:36:37.396Z,10.40
2018-12-15T14:39:06.440Z,10.93
2018-12-15T14:41:35.170Z,10.77
2018-12-15T14:44:05.058Z,11.50
2018-12-15T14:46:34.001Z,11.33
2018-12-15T14:49:02.591Z,10.43
2018-12-15T14:51:31.259Z,11.10
2018-12-15T14:54:01.143Z,10.77
2018-12-15T14:56:30.196Z,10.57
2018-12-15T14:59:00.073Z,11.07
2018-12-15T15:01:28.593Z,10.40
2018-12-15T15:03:58.097Z,11.27
2018-12-15T15:06:26.774Z,9.77
2018-12-15T15:08:56.356Z,10.57
2018-12-15T15:11:26.542Z,10.47
2018-12-15T15:13:55.091Z,10.23
2018-12-15T15:16:24.207Z,10.63
2018-12-15T15:18:54.023Z,10.67
2018-12-15T15:21:22.425Z,15.87
2018-12-15T15:23:50.973Z,9.23
2018-12-15T15:26:19.499Z,11.07
2018-12-15T15:28:48.856Z,10.57
2018-12-15T15:31:17.383Z,10.83
2018-12-15T15:33:45.796Z,10.43
2018-12-15T15:36:14.335Z,10.23
2018-12-15T15:38:43.376Z,10.37
2018-12-15T15:41:13.164Z,9.93
2018-12-15T15:43:42.119Z,10.73
2018-12-15T15:46:11.146Z,11.10
2018-12-15T15:48:40.199Z,10.27
2018-12-15T15:51:08.392Z,11.17
2018-12-15T15:53:37.008Z,10.80
2018-12-15T15:56:06.606Z,9.10
2018-12-15T15:58:34.923Z,10.47
2018-12-15T16:01:04.598Z,11.00
2018-12-15T16:03:33.651Z,10.73
2018-12-15T16:06:03.528Z,11.20
2018-12-15T16:08:33.423Z,10.47
2018-12-15T16:11:03.609Z,10.93
2018-12-15T16:13:32.664Z,10.47
2018-12-15T16:16:01.724Z,10.57
2018-12-15T16:18:30.856Z,11.13
2018-12-15T16:20:59.293Z,9.10
2018-12-15T16:23:27.697Z,10.93
2018-12-15T16:25:55.810Z,11.57
2018-12-15T16:28:24.680Z,10.50
2018-12-15T16:30:53.061Z,11.13
2018-12-15T16:33:21.673Z,11.07
2018-12-15T16:35:51.893Z,10.63
2018-12-15T16:38:20.823Z,10.93
2018-12-15T16:40:49.258Z,11.50
2018-12-15T16:43:19.770Z,11.00
2018-12-15T16:45:48.294Z,9.43
2018-12-15T16:48:16.820Z,10.57
2018-12-15T16:50:49.902Z,11.00
2018-12-15T16:53:15.448Z,10.97
2018-12-15T16:55:44.496Z,11.90
2018-12-15T16:58:12.621Z,11.17
2018-12-15T17:00:41.648Z,10.83
2018-12-15T17:03:10.687Z,11.87
2018-12-15T17:05:40.676Z,11.80
2018-12-15T17:08:10.359Z,11.17
2018-12-15T17:10:38.857Z,11.40
2018-12-15T17:13:07.923Z,11.43
2018-12-15T17:15:36.451Z,10.93
2018-12-15T17:18:04.705Z,11.00
2018-12-15T17:20:33.300Z,11.83
2018-12-15T17:23:01.821Z,12.23
2018-12-15T17:25:31.604Z,11.57
2018-12-15T17:28:00.023Z,12.30
2018-12-15T17:30:28.396Z,12.30
2018-12-15T17:32:56.736Z,11.33
2018-12-15T17:35:25.842Z,12.07
2018-12-15T17:37:54.223Z,12.30
2018-12-15T17:40:23.305Z,12.37
2018-12-15T17:42:52.426Z,10.60
2018-12-15T17:45:21.578Z,12.67
2018-12-15T17:47:50.521Z,12.37
2018-12-15T17:50:18.608Z,11.00
2018-12-15T17:52:48.198Z,12.67
2018-12-15T17:55:16.723Z,12.30
2018-12-15T17:57:44.813Z,12.40
2018-12-15T18:00:14.508Z,12.00
2018-12-15T18:02:43.762Z,10.83
2018-12-15T18:05:13.499Z,12.70
2018-12-15T18:07:41.651Z,12.10
2018-12-15T18:10:10.166Z,13.27
2018-12-15T18:12:38.791Z,11.57
2018-12-15T18:15:07.937Z,11.10
2018-12-15T18:17:36.567Z,12.57
2018-12-15T18:20:06.158Z,12.97
2018-12-15T18:22:34.552Z,10.90
2018-12-15T18:25:02.800Z,14.00
2018-12-15T18:27:31.213Z,13.40
2018-12-15T18:29:59.634Z,12.23
2018-12-15T18:32:28.472Z,10.87
2018-12-15T18:34:57.624Z,12.87
2018-12-15T18:37:26.683Z,12.87
2018-12-15T18:39:55.616Z,12.43
2018-12-15T18:42:24.664Z,11.43
2018-12-15T18:44:53.204Z,13.60
2018-12-15T18:47:21.611Z,15.43
2018-12-15T18:49:51.612Z,13.17
2018-12-15T18:52:20.649Z,11.60
2018-12-15T18:54:50.320Z,13.47
2018-12-15T18:57:18.640Z,13.87
2018-12-15T18:59:47.262Z,10.93
2018-12-15T19:02:16.418Z,12.93
2018-12-15T19:04:44.597Z,13.03
2018-12-15T19:07:13.237Z,13.43
2018-12-15T19:09:42.413Z,13.20
2018-12-15T19:12:11.409Z,12.00
2018-12-15T19:14:39.761Z,13.60
2018-12-15T19:17:08.747Z,13.53
2018-12-15T19:19:38.196Z,11.90
2018-12-15T19:22:08.490Z,13.77
2018-12-15T19:24:37.639Z,11.60
2018-12-15T19:27:06.795Z,13.20
2018-12-15T19:29:35.671Z,14.53
2018-12-15T19:32:04.460Z,11.03
2018-12-15T19:34:34.470Z,13.17
2018-12-15T19:37:02.600Z,13.27
2018-12-15T19:39:31.203Z,13.93
2018-12-15T19:42:00.555Z,11.60
2018-12-15T19:44:30.232Z,13.83
2018-12-15T19:47:00.429Z,13.80
2018-12-15T19:49:29.575Z,12.20
2018-12-15T19:52:00.195Z,14.80
2018-12-15T19:54:30.001Z,14.40
2018-12-15T19:56:59.544Z,13.23
2018-12-15T19:59:28.506Z,13.70
2018-12-15T20:01:57.117Z,11.87
2018-12-15T20:04:25.562Z,14.70
2018-12-15T20:06:54.587Z,14.83
2018-12-15T20:09:25.384Z,14.60
2018-12-15T20:11:54.563Z,12.00
2018-12-15T20:14:23.277Z,14.57
2018-12-15T20:16:51.562Z,14.17
2018-12-15T20:19:20.762Z,14.23
2018-12-15T20:21:49.398Z,12.27
2018-12-15T20:24:18.929Z,14.33
2018-12-15T20:26:48.119Z,12.10
2018-12-15T20:29:17.470Z,14.73
2018-12-15T20:31:46.007Z,14.43
2018-12-15T20:34:14.447Z,14.00
2018-12-15T20:36:43.163Z,14.10
2018-12-15T20:39:12.044Z,13.57
2018-12-15T20:41:40.426Z,12.17
2018-12-15T20:44:08.945Z,14.03
2018-12-15T20:46:37.549Z,17.07
2018-12-15T20:49:05.902Z,13.67
2018-12-15T20:51:34.425Z,14.33
2018-12-15T20:54:03.567Z,12.93
2018-12-15T20:56:34.188Z,16.07
2018-12-15T20:59:02.705Z,14.10
2018-12-15T21:01:31.864Z,14.20
2018-12-15T21:04:00.286Z,12.73
2018-12-15T21:06:30.583Z,14.30
2018-12-15T21:09:00.586Z,14.80
2018-12-15T21:11:29.429Z,15.07
2018-12-15T21:13:57.576Z,15.03
2018-12-15T21:16:26.046Z,14.17
2018-12-15T21:18:54.552Z,14.07
2018-12-15T21:21:23.195Z,12.03
2018-12-15T21:23:52.771Z,13.87
2018-12-15T21:26:21.755Z,14.90
2018-12-15T21:28:50.458Z,12.53
2018-12-15T21:31:19.296Z,14.83
2018-12-15T21:33:47.704Z,12.50
2018-12-15T21:36:16.796Z,14.47
2018-12-15T21:38:45.102Z,13.93
2018-12-15T21:41:13.469Z,11.77
2018-12-15T21:43:42.543Z,14.93
2018-12-15T21:46:12.425Z,13.57
2018-12-15T21:48:40.743Z,12.70
2018-12-15T21:51:08.928Z,14.07
2018-12-15T21:53:38.212Z,12.43
2018-12-15T21:56:07.115Z,13.33
2018-12-15T21:58:35.672Z,13.67
2018-12-15T22:01:04.833Z,11.80
2018-12-15T22:03:33.881Z,12.90
2018-12-15T22:06:02.292Z,13.33
2018-12-15T22:08:30.828Z,11.33
2018-12-15T22:10:59.240Z,12.63
2018-12-15T22:13:29.132Z,14.00
2018-12-15T22:15:57.554Z,11.33
2018-12-15T22:18:25.735Z,13.03
2018-12-15T22:20:54.206Z,11.83
2018-12-15T22:23:22.793Z,13.07
2018-12-15T22:25:51.342Z,12.37
2018-12-15T22:28:20.494Z,14.00
2018-12-15T22:30:49.541Z,11.67
2018-12-15T22:33:19.322Z,12.70
2018-12-15T22:35:48.472Z,11.97
2018-12-15T22:38:16.894Z,13.27
2018-12-15T22:40:45.318Z,12.37
2018-12-15T22:43:13.537Z,11.60
2018-12-15T22:45:43.202Z,13.63
2018-12-15T22:48:12.250Z,13.40
2018-12-15T22:50:42.237Z,13.10
2018-12-15T22:53:10.505Z,13.37
2018-12-15T22:55:39.601Z,13.03
2018-12-15T22:58:08.546Z,12.83
2018-12-15T23:00:43.464Z,12.70
2018-12-15T23:03:12.906Z,12.67
2018-12-15T23:05:43.000Z,12.63
2018-12-15T23:08:11.850Z,11.07
2018-12-15T23:10:40.365Z,13.27
2018-12-15T23:13:08.784Z,11.67
2018-12-15T23:15:38.688Z,12.50
2018-12-15T23:18:08.547Z,12.07
2018-12-15T23:20:37.922Z,11.00
2018-12-15T23:23:06.501Z,12.67
2018-12-15T23:25:35.072Z,12.57
2018-12-15T23:28:05.161Z,12.43
2018-12-15T23:30:34.209Z,13.60
2018-12-15T23:33:03.495Z,10.77
2018-12-15T23:35:32.513Z,13.57
2018-12-15T23:38:00.603Z,11.73
2018-12-15T23:40:29.397Z,12.33
2018-12-15T23:42:57.497Z,12.37
2018-12-15T23:45:26.481Z,12.93
2018-12-15T23:47:54.933Z,13.17
2018-12-15T23:50:23.459Z,11.27
2018-12-15T23:52:52.507Z,13.03
2018-12-15T23:55:21.561Z,14.07
2018-12-15T23:57:50.601Z,11.37
